Time;durP1;ratioP1;P1;durP2;ratioP2;P2;SDS_P1;SDS_P2;PMS_P1;PMS_P2;Temp;Humidity;BMP_temperature;BMP_pressure;BME280_temperature;BME280_humidity;BME280_pressure;Samples;Min_cycle;Max_cycle;Signal;HPM_P1;HPM_P2
2022/04/10 00:01:18;;;;;;;11.05;5.82;;;1.50;99.90;;;;;;4999404;28;20022;-85
2022/04/10 00:03:43;;;;;;;14.07;6.28;;;1.50;99.90;;;;;;5017438;28;20029;-84
2022/04/10 00:06:09;;;;;;;10.20;5.97;;;1.40;99.90;;;;;;5017460;28;20462;-84
2022/04/10 00:08:35;;;;;;;7.60;5.40;;;1.40;99.90;;;;;;5016942;28;20498;-84
2022/04/10 00:11:00;;;;;;;10.43;5.57;;;1.30;99.90;;;;;;4999125;28;20030;-83
2022/04/10 00:13:26;;;;;;;6.25;4.55;;;1.30;99.90;;;;;;5017016;28;20056;-86
2022/04/10 00:15:52;;;;;;;6.07;4.63;;;1.30;99.90;;;;;;5017342;28;20498;-83
2022/04/10 00:18:17;;;;;;;12.18;5.88;;;1.30;99.90;;;;;;5016985;28;20021;-85
2022/04/10 00:20:43;;;;;;;12.25;5.80;;;1.30;99.90;;;;;;5016653;28;20022;-86
2022/04/10 00:23:09;;;;;;;10.23;5.95;;;1.20;99.90;;;;;;5016409;28;20026;-85
2022/04/10 00:25:34;;;;;;;8.05;5.40;;;1.10;99.90;;;;;;4998716;28;20057;-85
2022/04/10 00:28:00;;;;;;;10.75;5.88;;;1.10;99.90;;;;;;5016539;28;20026;-85
2022/04/10 00:30:26;;;;;;;9.70;6.30;;;1.10;99.90;;;;;;4998557;28;20025;-86
2022/04/10 00:32:52;;;;;;;10.52;5.93;;;1.10;99.90;;;;;;5016481;28;20506;-84
2022/04/10 00:35:18;;;;;;;10.45;5.93;;;1.00;99.90;;;;;;5016174;28;20022;-85
2022/04/10 00:37:43;;;;;;;13.05;6.43;;;0.90;99.90;;;;;;4998314;28;20540;-84
2022/04/10 00:40:11;;;;;;;14.45;6.57;;;0.90;99.90;;;;;;5016216;28;20034;-85
2022/04/10 00:42:38;;;;;;;12.02;6.30;;;0.90;99.90;;;;;;5016538;28;20037;-85
2022/04/10 00:45:06;;;;;;;12.93;6.70;;;0.90;99.90;;;;;;5016629;28;20052;-84
2022/04/10 00:47:32;;;;;;;10.38;5.90;;;0.90;99.90;;;;;;5015674;28;20022;-85
2022/04/10 00:49:59;;;;;;;10.05;6.13;;;0.90;99.90;;;;;;4998443;28;20036;-85
2022/04/10 00:52:26;;;;;;;7.70;4.85;;;0.90;99.90;;;;;;4998298;28;20042;-84
2022/04/10 00:54:52;;;;;;;8.23;5.50;;;0.80;99.90;;;;;;5016064;28;20037;-84
2022/04/10 00:57:19;;;;;;;8.35;5.65;;;0.80;99.90;;;;;;5015958;28;20032;-84
2022/04/10 00:59:45;;;;;;;12.48;5.68;;;0.80;99.90;;;;;;5015478;28;20502;-82
2022/04/10 01:02:10;;;;;;;14.45;5.85;;;0.90;99.90;;;;;;4997578;28;20036;-84
2022/04/10 01:04:37;;;;;;;9.55;5.85;;;0.90;99.90;;;;;;5014406;28;20033;-84
2022/04/10 01:07:04;;;;;;;12.90;6.13;;;0.90;99.90;;;;;;5016146;28;20026;-84
2022/04/10 01:09:33;;;;;;;13.70;6.43;;;0.80;99.90;;;;;;4996212;28;20034;-84
2022/04/10 01:12:00;;;;;;;11.27;6.25;;;0.70;99.90;;;;;;4995840;28;20104;-84
2022/04/10 01:14:26;;;;;;;9.52;6.32;;;0.60;99.90;;;;;;4977749;28;20049;-84
2022/04/10 01:16:53;;;;;;;10.50;5.93;;;0.60;99.90;;;;;;4996020;28;20081;-84
2022/04/10 01:19:19;;;;;;;9.68;6.22;;;0.50;99.90;;;;;;5015058;28;20411;-84
2022/04/10 01:21:49;;;;;;;10.20;6.20;;;0.40;99.90;;;;;;5015382;28;20020;-84
2022/04/10 01:24:16;;;;;;;10.50;6.72;;;0.40;99.90;;;;;;4997355;28;20030;-84
2022/04/10 01:26:44;;;;;;;10.68;6.30;;;0.50;99.90;;;;;;5015652;28;20438;-84
2022/04/10 01:29:13;;;;;;;10.18;6.38;;;0.50;99.90;;;;;;5015387;28;20699;-84
2022/04/10 01:31:40;;;;;;;12.23;6.40;;;0.50;99.90;;;;;;4997537;28;20038;-84
2022/04/10 01:34:13;;;;;;;9.95;6.10;;;0.50;99.90;;;;;;5015408;28;20030;-85
2022/04/10 01:36:40;;;;;;;11.15;7.55;;;0.40;99.90;;;;;;5014962;28;20034;-84
2022/04/10 01:39:07;;;;;;;11.68;6.30;;;0.30;99.90;;;;;;5015619;28;20119;-84
2022/04/10 01:41:34;;;;;;;13.90;6.97;;;0.30;99.90;;;;;;5014952;28;20073;-86
2022/04/10 01:44:00;;;;;;;13.88;7.53;;;0.20;99.90;;;;;;5014676;28;20058;-84
2022/04/10 01:46:28;;;;;;;14.23;7.57;;;0.30;99.90;;;;;;5014354;28;20548;-84
2022/04/10 01:48:54;;;;;;;17.55;7.72;;;0.30;99.90;;;;;;4997436;28;20030;-85
2022/04/10 01:51:20;;;;;;;18.05;7.63;;;0.30;99.90;;;;;;5014655;28;20490;-85
2022/04/10 01:53:45;;;;;;;11.32;7.50;;;0.30;99.90;;;;;;4997735;28;20026;-85
2022/04/10 01:56:12;;;;;;;12.40;6.88;;;0.20;99.90;;;;;;5015183;28;20088;-85
2022/04/10 01:58:42;;;;;;;19.75;7.13;;;0.20;99.90;;;;;;5014963;28;20029;-85
2022/04/10 02:01:10;;;;;;;17.08;7.10;;;0.10;99.90;;;;;;4996873;28;20072;-84
2022/04/10 02:03:36;;;;;;;15.10;7.30;;;0.10;99.90;;;;;;5014884;28;20026;-85
2022/04/10 02:06:02;;;;;;;11.77;6.68;;;0.10;99.90;;;;;;5014985;28;20079;-85
2022/04/10 02:08:29;;;;;;;13.30;7.40;;;0.00;99.90;;;;;;5014968;28;20434;-84
2022/04/10 02:10:55;;;;;;;13.35;7.18;;;0.10;99.90;;;;;;5013437;28;20129;-84
2022/04/10 02:13:21;;;;;;;18.63;8.85;;;0.10;99.90;;;;;;5014873;28;20110;-85
2022/04/10 02:15:47;;;;;;;14.35;8.30;;;0.10;99.90;;;;;;5015169;28;20507;-84
2022/04/10 02:18:13;;;;;;;15.30;7.78;;;0.10;99.90;;;;;;5014251;28;20021;-83
2022/04/10 02:20:39;;;;;;;16.27;8.52;;;0.10;99.90;;;;;;4997044;28;20107;-82
2022/04/10 02:23:05;;;;;;;10.65;7.13;;;0.10;99.90;;;;;;4996426;28;20089;-84
2022/04/10 02:25:31;;;;;;;13.55;7.75;;;0.20;99.90;;;;;;4996681;28;20034;-84
2022/04/10 02:27:56;;;;;;;12.45;7.68;;;0.20;99.90;;;;;;4996572;28;20080;-84
2022/04/10 02:30:22;;;;;;;13.18;7.68;;;0.20;99.90;;;;;;4996687;28;20034;-85
2022/04/10 02:32:48;;;;;;;11.55;7.68;;;0.20;99.90;;;;;;5014169;28;20093;-86
2022/04/10 02:35:14;;;;;;;14.38;7.35;;;0.20;99.90;;;;;;5015218;28;20028;-84
2022/04/10 02:37:40;;;;;;;14.85;7.75;;;0.20;99.90;;;;;;5014335;28;20605;-85
2022/04/10 02:40:07;;;;;;;13.52;7.53;;;0.30;99.90;;;;;;5015076;28;20367;-85
2022/04/10 02:42:36;;;;;;;9.95;6.38;;;0.40;99.90;;;;;;5014693;28;20118;-84
2022/04/10 02:45:04;;;;;;;13.43;7.25;;;0.40;99.90;;;;;;5014677;28;20022;-85
2022/04/10 02:47:32;;;;;;;14.30;6.45;;;0.40;99.90;;;;;;5014317;28;20034;-84
2022/04/10 02:49:58;;;;;;;14.60;7.35;;;0.40;99.90;;;;;;4997153;28;20026;-84
2022/04/10 02:52:23;;;;;;;12.18;6.93;;;0.50;99.90;;;;;;5015319;28;20026;-84
2022/04/10 02:54:49;;;;;;;13.52;7.07;;;0.60;99.90;;;;;;4998191;28;20069;-83
2022/04/10 02:57:15;;;;;;;15.15;7.70;;;0.60;99.90;;;;;;5013833;28;20080;-85
2022/04/10 02:59:40;;;;;;;12.10;7.38;;;0.60;99.90;;;;;;5013875;28;20504;-82
2022/04/10 03:02:06;;;;;;;18.40;6.65;;;0.60;99.90;;;;;;4997664;28;20093;-82
2022/04/10 03:04:32;;;;;;;10.50;6.47;;;0.60;99.90;;;;;;4997025;28;20033;-82
2022/04/10 03:06:57;;;;;;;11.93;6.88;;;0.70;99.90;;;;;;5014044;28;20026;-83
2022/04/10 03:09:23;;;;;;;12.75;7.70;;;0.70;99.90;;;;;;5014683;28;20033;-83
2022/04/10 03:11:49;;;;;;;13.82;7.40;;;0.70;99.90;;;;;;4996339;28;20467;-83
2022/04/10 03:14:15;;;;;;;10.77;7.30;;;0.70;99.90;;;;;;5014251;28;20022;-83
2022/04/10 03:16:42;;;;;;;14.57;7.40;;;0.70;99.90;;;;;;4997201;28;20022;-86
2022/04/10 03:19:08;;;;;;;14.30;8.30;;;0.70;99.90;;;;;;5014962;28;20037;-84
2022/04/10 03:21:34;;;;;;;14.43;8.10;;;0.70;99.90;;;;;;5014541;28;20025;-84
2022/04/10 03:24:01;;;;;;;13.77;8.50;;;0.70;99.90;;;;;;5014016;28;20041;-82
2022/04/10 03:26:27;;;;;;;25.20;8.40;;;0.80;99.90;;;;;;4996714;28;20032;-83
2022/04/10 03:28:53;;;;;;;17.45;9.68;;;0.80;99.90;;;;;;5014168;28;20116;-81
2022/04/10 03:31:20;;;;;;;12.13;8.07;;;0.90;99.90;;;;;;4996762;28;20022;-84
2022/04/10 03:33:46;;;;;;;14.35;7.95;;;0.90;99.90;;;;;;5014744;28;20086;-84
2022/04/10 03:36:12;;;;;;;12.43;8.30;;;1.00;99.90;;;;;;5014707;28;20076;-84
2022/04/10 03:38:38;;;;;;;18.73;8.52;;;1.00;99.90;;;;;;5013906;28;20544;-84
2022/04/10 03:41:03;;;;;;;13.65;9.10;;;1.10;99.90;;;;;;5013852;28;20033;-84
2022/04/10 03:43:29;;;;;;;14.70;7.88;;;1.10;99.90;;;;;;5013986;28;20113;-83
2022/04/10 03:45:54;;;;;;;14.82;7.60;;;1.10;99.90;;;;;;4996059;28;20490;-83
2022/04/10 03:48:20;;;;;;;12.23;7.47;;;1.10;99.90;;;;;;4996244;28;20125;-83
2022/04/10 03:50:46;;;;;;;13.68;8.35;;;1.10;99.90;;;;;;5014027;28;20030;-84
2022/04/10 03:53:11;;;;;;;14.55;8.02;;;1.10;99.90;;;;;;4996373;28;20022;-84
2022/04/10 03:55:37;;;;;;;14.18;7.97;;;1.10;99.90;;;;;;5013795;28;20033;-84
2022/04/10 03:58:03;;;;;;;15.85;8.65;;;1.10;99.90;;;;;;5013702;28;20049;-83
2022/04/10 04:00:28;;;;;;;12.32;7.95;;;1.10;99.90;;;;;;4995974;28;20026;-84
2022/04/10 04:02:54;;;;;;;15.07;8.30;;;1.10;99.90;;;;;;4995789;28;20044;-85
2022/04/10 04:05:19;;;;;;;14.75;7.88;;;1.20;99.90;;;;;;5013218;28;20075;-83
2022/04/10 04:07:45;;;;;;;18.05;8.85;;;1.20;99.90;;;;;;5013897;28;20037;-83
2022/04/10 04:10:11;;;;;;;15.30;8.80;;;1.20;99.90;;;;;;4998760;28;20022;-84
2022/04/10 04:12:37;;;;;;;12.88;8.25;;;1.20;99.90;;;;;;4999612;28;20032;-85
2022/04/10 04:15:04;;;;;;;12.80;7.60;;;1.20;99.90;;;;;;4998918;28;20021;-84
2022/04/10 04:17:30;;;;;;;14.60;8.13;;;1.10;99.90;;;;;;5016909;28;20397;-84
2022/04/10 04:19:56;;;;;;;12.88;7.53;;;1.10;99.90;;;;;;4998992;28;20109;-84
2022/04/10 04:22:22;;;;;;;15.68;8.57;;;1.10;99.90;;;;;;5016219;28;20060;-88
2022/04/10 04:24:47;;;;;;;13.82;8.40;;;1.00;99.90;;;;;;4998710;28;20038;-84
2022/04/10 04:27:13;;;;;;;14.82;7.70;;;1.00;99.90;;;;;;4999164;28;20056;-85
2022/04/10 04:29:39;;;;;;;20.50;8.98;;;1.10;99.90;;;;;;4999369;28;20350;-84
2022/04/10 04:32:05;;;;;;;13.27;8.57;;;1.00;99.90;;;;;;4998971;28;20037;-85
2022/04/10 04:34:30;;;;;;;15.30;8.05;;;1.00;99.90;;;;;;5000071;28;20025;-84
2022/04/10 04:36:56;;;;;;;16.73;7.60;;;1.10;99.90;;;;;;5000918;28;20022;-84
2022/04/10 04:39:22;;;;;;;11.68;7.93;;;1.10;99.90;;;;;;5000868;28;20367;-85
2022/04/10 04:41:49;;;;;;;13.00;8.07;;;1.10;99.90;;;;;;5000067;28;20104;-85
2022/04/10 04:44:15;;;;;;;14.57;8.55;;;1.10;99.90;;;;;;5018342;28;20097;-84
2022/04/10 04:46:41;;;;;;;11.82;8.63;;;1.20;99.90;;;;;;5000629;28;20034;-84
2022/04/10 04:49:07;;;;;;;16.63;9.30;;;1.20;99.90;;;;;;5000040;28;20045;-85
2022/04/10 04:51:36;;;;;;;12.90;8.57;;;1.20;99.90;;;;;;5000150;28;20053;-84
2022/04/10 04:54:08;;;;;;;14.07;9.45;;;1.20;99.90;;;;;;5018741;28;20025;-85
2022/04/10 04:56:34;;;;;;;13.50;8.27;;;1.20;99.90;;;;;;5018797;28;20026;-87
2022/04/10 04:58:59;;;;;;;12.60;8.80;;;1.20;99.90;;;;;;5018644;28;20041;-85
2022/04/10 05:01:25;;;;;;;19.98;9.02;;;1.20;99.90;;;;;;5017143;28;20083;-82
2022/04/10 05:03:50;;;;;;;12.90;8.00;;;1.20;99.90;;;;;;5017253;28;20022;-84
2022/04/10 05:06:16;;;;;;;15.10;8.00;;;1.10;99.90;;;;;;4999524;28;20028;-84
2022/04/10 05:08:42;;;;;;;20.80;9.40;;;1.10;99.90;;;;;;4999544;28;20029;-85
2022/04/10 05:11:10;;;;;;;19.30;8.93;;;1.20;99.90;;;;;;5016291;28;20030;-84
2022/04/10 05:13:36;;;;;;;15.20;9.50;;;1.20;99.90;;;;;;5018149;28;20048;-85
2022/04/10 05:16:02;;;;;;;18.48;9.15;;;1.20;99.90;;;;;;5017762;28;20018;-84
2022/04/10 05:18:27;;;;;;;15.45;7.82;;;1.20;99.90;;;;;;5018560;28;20629;-84
2022/04/10 05:20:53;;;;;;;13.63;8.85;;;1.20;99.90;;;;;;4998417;28;20029;-83
2022/04/10 05:23:20;;;;;;;16.48;8.98;;;1.20;99.90;;;;;;4999300;28;20109;-84
2022/04/10 05:25:46;;;;;;;15.35;9.68;;;1.30;99.90;;;;;;5017694;28;20037;-83
2022/04/10 05:28:12;;;;;;;15.95;8.63;;;1.30;99.90;;;;;;4998465;28;20037;-85
2022/04/10 05:30:38;;;;;;;13.90;8.60;;;1.30;99.90;;;;;;5015954;28;20034;-83
2022/04/10 05:33:03;;;;;;;17.92;8.07;;;1.30;99.90;;;;;;4998013;28;20026;-83
2022/04/10 05:35:29;;;;;;;14.43;9.05;;;1.30;99.90;;;;;;4997807;28;20018;-84
2022/04/10 05:37:55;;;;;;;15.02;8.93;;;1.30;99.90;;;;;;5016593;28;20088;-83
2022/04/10 05:40:22;;;;;;;16.08;9.18;;;1.30;99.90;;;;;;5015450;28;20457;-83
2022/04/10 05:42:48;;;;;;;16.33;9.02;;;1.20;99.90;;;;;;4997887;28;20084;-81
2022/04/10 05:45:13;;;;;;;14.95;8.80;;;1.30;99.90;;;;;;4998329;28;20073;-83
2022/04/10 05:47:41;;;;;;;17.90;9.85;;;1.30;99.90;;;;;;5015904;28;20037;-82
2022/04/10 05:50:08;;;;;;;22.35;10.38;;;1.40;99.90;;;;;;4997675;28;20125;-81
2022/04/10 05:52:38;;;;;;;21.40;9.95;;;1.40;99.90;;;;;;5015490;28;20038;-82
2022/04/10 05:55:04;;;;;;;19.23;9.48;;;1.40;99.90;;;;;;4997855;28;20029;-82
2022/04/10 05:57:30;;;;;;;25.13;10.98;;;1.50;99.90;;;;;;5015632;28;20026;-83
2022/04/10 05:59:56;;;;;;;15.43;9.82;;;1.60;99.90;;;;;;4998447;28;20052;-83
2022/04/10 06:02:21;;;;;;;16.42;9.15;;;1.60;99.90;;;;;;4997432;28;20143;-83
2022/04/10 06:04:47;;;;;;;14.73;9.13;;;1.60;99.90;;;;;;5016205;28;20028;-85
2022/04/10 06:07:12;;;;;;;16.85;10.13;;;1.70;99.90;;;;;;4997825;28;20030;-84
2022/04/10 06:09:38;;;;;;;19.80;9.63;;;1.80;99.90;;;;;;5015649;28;20030;-84
2022/04/10 06:12:04;;;;;;;17.55;10.70;;;2.00;99.90;;;;;;5015782;28;20026;-85
2022/04/10 06:14:33;;;;;;;20.45;10.77;;;2.10;99.90;;;;;;5003539;28;20030;-84
2022/04/10 06:16:59;;;;;;;18.42;11.13;;;2.20;99.90;;;;;;4978695;28;20030;-86
2022/04/10 06:19:25;;;;;;;13.50;9.02;;;2.20;99.90;;;;;;5015516;28;20077;-84
2022/04/10 06:21:50;;;;;;;21.42;10.73;;;2.20;99.90;;;;;;5015765;28;20042;-84
2022/04/10 06:24:16;;;;;;;17.58;10.90;;;2.30;99.90;;;;;;4999365;28;20025;-87
2022/04/10 06:26:44;;;;;;;18.23;10.15;;;2.30;99.90;;;;;;5013160;28;20049;-88
2022/04/10 06:29:09;;;;;;;17.33;10.23;;;2.30;99.90;;;;;;4997269;28;20026;-85
2022/04/10 06:31:35;;;;;;;16.63;10.75;;;2.40;99.90;;;;;;4999011;28;20023;-85
2022/04/10 06:34:01;;;;;;;19.95;10.82;;;2.40;99.90;;;;;;5000349;28;20417;-84
2022/04/10 06:36:27;;;;;;;17.17;9.82;;;2.50;99.90;;;;;;5017630;28;20088;-85
2022/04/10 06:38:52;;;;;;;18.45;10.43;;;2.60;99.90;;;;;;5000091;28;20080;-83
2022/04/10 06:41:18;;;;;;;16.42;9.98;;;2.70;99.90;;;;;;4999286;28;20030;-83
2022/04/10 06:43:44;;;;;;;17.58;9.27;;;2.80;99.90;;;;;;5016635;28;20033;-83
2022/04/10 06:46:10;;;;;;;16.48;8.95;;;2.70;99.90;;;;;;5015780;28;20712;-82
2022/04/10 06:48:36;;;;;;;16.40;9.25;;;2.70;99.90;;;;;;4998451;28;20045;-83
2022/04/10 06:51:03;;;;;;;15.93;10.18;;;2.80;99.90;;;;;;5017715;28;20062;-85
2022/04/10 06:53:28;;;;;;;22.75;10.90;;;2.80;99.90;;;;;;5016681;28;20091;-85
2022/04/10 06:55:54;;;;;;;18.65;10.38;;;2.80;99.90;;;;;;5017821;28;20129;-87
2022/04/10 06:58:22;;;;;;;15.35;10.07;;;2.90;99.90;;;;;;5016424;28;20513;-86
2022/04/10 07:00:49;;;;;;;15.85;10.00;;;2.90;99.90;;;;;;5016372;28;20022;-85
2022/04/10 07:03:18;;;;;;;19.05;9.80;;;2.90;99.90;;;;;;4997907;28;20026;-86
2022/04/10 07:05:44;;;;;;;16.33;8.60;;;2.90;99.90;;;;;;5015263;28;20030;-85
2022/04/10 07:08:10;;;;;;;17.27;10.32;;;2.90;99.90;;;;;;4997709;28;20552;-87
2022/04/10 07:10:38;;;;;;;14.63;9.25;;;2.90;99.90;;;;;;4996857;28;20034;-85
2022/04/10 07:13:04;;;;;;;21.10;10.40;;;2.90;99.90;;;;;;5015792;28;20118;-86
2022/04/10 07:15:31;;;;;;;14.60;9.43;;;3.00;99.90;;;;;;4994872;28;20027;-84
2022/04/10 07:17:58;;;;;;;19.30;9.85;;;3.00;99.90;;;;;;4998691;28;20045;-83
2022/04/10 07:20:24;;;;;;;12.23;8.50;;;3.00;99.90;;;;;;4998124;28;20034;-83
2022/04/10 07:25:34;;;;;;;13.98;10.07;;;3.20;99.90;;;;;;5000123;28;20052;-84
2022/04/10 07:28:00;;;;;;;14.18;9.18;;;3.30;99.90;;;;;;4999382;28;20033;-83
2022/04/10 07:30:26;;;;;;;14.95;9.50;;;3.30;99.90;;;;;;4999339;28;20022;-83
2022/04/10 07:32:54;;;;;;;17.60;9.50;;;3.40;99.90;;;;;;5017519;28;20033;-83
2022/04/10 07:35:21;;;;;;;15.90;9.05;;;3.40;99.90;;;;;;4999448;28;20489;-84
2022/04/10 07:37:47;;;;;;;19.35;10.02;;;3.40;99.90;;;;;;5017017;28;20504;-83
2022/04/10 07:40:13;;;;;;;15.23;9.43;;;3.50;99.90;;;;;;4995978;28;20030;-84
2022/04/10 07:42:43;;;;;;;13.70;8.05;;;3.50;99.90;;;;;;4997205;28;20177;-83
2022/04/10 07:45:10;;;;;;;17.20;9.43;;;3.50;99.90;;;;;;5002749;28;20498;-82
2022/04/10 07:47:36;;;;;;;14.90;9.10;;;3.70;99.90;;;;;;5021867;28;20057;-84
2022/04/10 07:50:03;;;;;;;12.00;8.40;;;3.80;99.90;;;;;;5021576;28;20032;-82
2022/04/10 07:52:29;;;;;;;13.13;7.95;;;3.90;99.90;;;;;;5021106;28;20022;-83
2022/04/10 07:54:55;;;;;;;14.25;8.23;;;4.00;99.90;;;;;;5003803;28;20026;-84
2022/04/10 07:57:21;;;;;;;13.38;8.57;;;4.20;99.90;;;;;;5004917;28;20029;-84
2022/04/10 07:59:47;;;;;;;15.88;8.15;;;4.40;99.90;;;;;;5023078;28;20037;-85
2022/04/10 08:02:12;;;;;;;13.18;8.23;;;4.60;99.90;;;;;;5022735;28;20036;-83
2022/04/10 08:04:38;;;;;;;12.75;7.43;;;4.70;99.90;;;;;;5022587;28;20026;-85
2022/04/10 08:07:10;;;;;;;15.07;7.80;;;4.70;99.90;;;;;;5003753;28;20552;-83
2022/04/10 08:09:36;;;;;;;11.27;6.57;;;4.80;99.90;;;;;;5019118;28;20040;-83
2022/04/10 08:12:12;;;;;;;12.73;7.75;;;4.90;99.90;;;;;;5019583;28;20017;-82
2022/04/10 08:14:38;;;;;;;9.88;6.18;;;5.00;99.90;;;;;;5004419;28;20029;-83
2022/04/10 08:17:03;;;;;;;15.30;7.22;;;5.10;99.90;;;;;;5002678;28;20030;-83
2022/04/10 08:19:29;;;;;;;12.27;6.07;;;5.30;99.90;;;;;;5018680;28;20037;-84
2022/04/10 08:21:55;;;;;;;8.80;5.50;;;5.40;99.90;;;;;;5019441;28;20025;-83
2022/04/10 08:24:20;;;;;;;11.23;5.13;;;5.20;99.90;;;;;;5014312;28;20022;-85
2022/04/10 08:26:48;;;;;;;8.25;5.30;;;5.20;99.90;;;;;;4996825;28;20605;-86
2022/04/10 08:29:14;;;;;;;9.27;5.50;;;5.20;99.90;;;;;;5018194;28;20025;-83
2022/04/10 08:31:40;;;;;;;8.75;5.72;;;5.30;99.90;;;;;;5000956;28;20100;-82
2022/04/10 08:35:11;;;;;;;7.53;5.47;;;5.30;99.90;;;;;;5021877;28;20037;-86
2022/04/10 09:04:41;;;;;;;8.98;5.50;;;6.20;99.90;;;;;;5149622;22;20054;-86
2022/04/10 09:11:01;;;;;;;7.90;5.22;;;6.20;99.90;;;;;;5332983;22;20031;-88
2022/04/10 09:14:08;;;;;;;7.75;5.40;;;6.10;99.90;;;;;;4980129;28;20518;-86
2022/04/10 09:19:56;;;;;;;11.63;6.30;;;5.80;99.90;;;;;;5005224;28;20096;-86
2022/04/10 09:39:32;;;;;;;;;;;;;;;;;;;;;
2022/04/10 09:42:16;;;;;;;9.88;5.53;;;;;;;;;;5054789;28;20057;-85
2022/04/10 09:44:42;;;;;;;10.25;5.43;;;;;;;;;;5039011;28;20344;-85
2022/04/10 09:56:29;;;;;;;12.75;6.05;;;;;;;;;;5178349;22;20061;-85
2022/04/10 10:04:39;;;;;;;13.82;5.22;;;7.90;91.70;;;;;;5509644;22;20061;-87
2022/04/10 10:07:14;;;;;;;11.35;5.57;;;8.00;91.90;;;;;;5018201;28;20121;-85
2022/04/10 10:10:14;;;;;;;8.32;4.78;;;8.10;90.90;;;;;;5018801;28;20061;-87
2022/04/10 10:12:45;;;;;;;11.25;5.00;;;8.10;89.60;;;;;;5036678;28;20029;-87
2022/04/10 10:15:11;;;;;;;6.30;4.93;;;;;;;;;;5036593;28;20044;-87
2022/04/10 10:17:38;;;;;;;8.77;4.95;;;8.20;88.70;;;;;;5036769;28;20037;-85
2022/04/10 10:20:08;;;;;;;9.38;4.80;;;8.50;89.80;;;;;;5037151;28;20044;-84
2022/04/10 10:22:37;;;;;;;8.70;4.95;;;8.70;83.40;;;;;;5037180;28;20090;-87
2022/04/10 10:25:12;;;;;;;5.38;4.38;;;8.60;83.40;;;;;;5018676;28;20485;-85
2022/04/10 10:28:14;;;;;;;10.43;5.13;;;8.50;83.70;;;;;;5018561;28;20025;-86
2022/04/10 10:30:58;;;;;;;6.38;4.60;;;8.30;84.60;;;;;;4999441;28;20025;-87
2022/04/10 10:39:45;;;;;;;11.57;5.18;;;8.50;81.90;;;;;;5645369;23;20316;-85
2022/04/10 10:46:32;;;;;;;10.70;5.43;;;8.40;80.30;;;;;;4953046;28;20114;-85
2022/04/10 10:56:09;;;;;;;;;;;;;;;;;;;;;
2022/04/10 10:58:37;;;;;;;9.63;5.22;;;9.50;75.00;;;;;;5033708;28;20040;-85
2022/04/10 11:06:53;;;;;;;;;;;;;;;;;;;;;
2022/04/10 11:09:49;;;;;;;7.95;4.28;;;;;;;;;;4981871;28;20512;-85
2022/04/10 11:15:58;;;;;;;7.85;4.15;;;;;;;;;;4954305;29;20133;-85
2022/04/10 11:18:57;;;;;;;7.07;3.70;;;;;;;;;;4956400;28;20027;-86
2022/04/10 11:21:24;;;;;;;9.07;4.25;;;;;;;;;;4995043;28;20615;-86
2022/04/10 11:23:50;;;;;;;9.43;4.10;;;;;;;;;;5040200;28;20030;-85
2022/04/10 11:26:20;;;;;;;6.22;3.72;;;8.60;73.70;;;;;;5037385;28;20017;-84
2022/04/10 11:29:03;;;;;;;6.72;3.33;;;8.10;78.90;;;;;;5038923;28;20025;-85
2022/04/10 11:31:32;;;;;;;5.20;3.03;;;8.60;76.70;;;;;;5039199;28;20038;-86
2022/04/10 11:37:46;;;;;;;9.90;3.75;;;9.40;72.00;;;;;;5035491;28;20037;-85
2022/04/10 11:52:19;;;;;;;;;;;10.90;61.40;;;;;;5109901;22;20064;-88
2022/04/10 12:01:35;;;;;;;;;;;;;;;;;;;;;
2022/04/10 12:16:57;;;;;;;4.75;2.42;;;8.70;72.90;;;;;;4935911;29;20063;-86
2022/04/10 12:19:36;;;;;;;8.40;3.20;;;8.90;70.30;;;;;;4918294;29;20032;-86
2022/04/10 12:22:11;;;;;;;4.40;2.88;;;;;;;;;;4935035;29;20036;-86
2022/04/10 12:28:35;;;;;;;;;;;;;;;;;;;;;
2022/04/10 12:36:16;;;;;;;5.78;2.72;;;9.90;65.70;;;;;;5029382;23;20056;-88
2022/04/10 12:42:20;;;;;;;7.55;3.25;;;9.80;63.60;;;;;;5101005;22;20421;-88
2022/04/10 12:48:31;;;;;;;;;;;9.10;66.50;;;;;;4954319;28;20031;-89
2022/04/10 12:52:02;;;;;;;;;;;;;;;;;;;;;
2022/04/10 13:06:45;;;;;;;4.95;2.85;;;;;;;;;;4787251;22;20068;-86
2022/04/10 13:24:17;;;;;;;6.00;3.30;;;;;;;;;;5520146;22;20053;-87
2022/04/10 13:30:16;;;;;;;7.45;3.10;;;8.50;73.80;;;;;;4973118;28;20517;-86
2022/04/10 13:37:52;;;;;;;6.35;2.97;;;8.60;84.90;;;;;;5614147;22;20054;-88
2022/04/10 13:40:18;;;;;;;5.18;2.75;;;8.70;84.10;;;;;;5033713;28;20070;-87
2022/04/10 13:43:17;;;;;;;4.30;2.90;;;8.80;84.00;;;;;;5034509;28;20029;-89
2022/04/10 13:53:34;;;;;;;10.35;2.83;;;9.10;80.80;;;;;;5623258;22;20194;-89
2022/04/10 13:56:11;;;;;;;5.22;2.90;;;9.50;80.00;;;;;;4990840;28;20120;-87
2022/04/10 14:08:30;;;;;;;5.63;2.60;;;9.20;72.70;;;;;;4952716;28;19968;-88
2022/04/10 14:10:57;;;;;;;4.85;2.70;;;;;;;;;;4952593;28;20035;-88
2022/04/10 14:16:42;;;;;;;8.10;2.70;;;9.00;72.80;;;;;;4933928;29;20039;-88
2022/04/10 14:20:07;;;;;;;7.95;2.90;;;9.20;70.40;;;;;;4950395;29;20089;-87
2022/04/10 14:22:41;;;;;;;4.22;2.40;;;9.30;70.50;;;;;;4884760;29;20033;-88
2022/04/10 14:25:12;;;;;;;7.15;2.83;;;9.90;94.90;;;;;;4891254;29;20105;-87
2022/04/10 14:27:38;;;;;;;5.35;2.80;;;10.60;92.60;;;;;;4957499;28;20034;-85
2022/04/10 14:30:25;;;;;;;11.35;2.25;;;11.20;92.20;;;;;;4978097;28;20026;-86
2022/04/10 14:32:53;;;;;;;6.78;2.45;;;12.20;90.70;;;;;;4990981;28;20026;-87
2022/04/10 14:35:36;;;;;;;7.45;2.28;;;12.90;86.00;;;;;;4995404;28;20018;-87
2022/04/10 14:38:02;;;;;;;5.18;3.03;;;13.90;83.70;;;;;;4995519;28;20659;-86
2022/04/10 14:40:28;;;;;;;4.53;2.15;;;14.50;82.80;;;;;;5012993;28;20050;-87
2022/04/10 14:47:03;;;;;;;3.85;1.85;;;13.70;80.90;;;;;;4931155;29;20042;-86
2022/04/10 14:50:06;;;;;;;3.25;1.90;;;13.10;81.10;;;;;;4853252;29;20038;-87
2022/04/10 15:03:38;;;;;;;5.28;2.42;;;11.30;85.60;;;;;;5296929;22;20111;-89
2022/04/10 15:12:53;;;;;;;5.68;1.88;;;11.10;86.20;;;;;;5058745;22;20056;-89
2022/04/10 15:19:00;;;;;;;;;;;12.50;83.20;;;;;;4971818;28;20113;-88
2022/04/10 15:25:13;;;;;;;;;;;;;;;;;;;;;
2022/04/10 15:27:39;;;;;;;6.20;2.40;;;12.70;81.80;;;;;;5045018;28;20032;-91
2022/04/10 15:30:12;;;;;;;5.85;2.03;;;12.60;77.90;;;;;;5052241;28;20108;-88
2022/04/10 15:32:45;;;;;;;4.20;1.63;;;12.20;54.60;;;;;;5026180;28;20434;-90
2022/04/10 15:35:24;;;;;;;5.05;2.03;;;12.40;53.40;;;;;;5014575;28;20116;-88
2022/04/10 15:48:13;;;;;;;5.05;2.00;;;11.20;56.10;;;;;;4932796;29;20121;-88
2022/04/10 15:50:41;;;;;;;3.50;1.63;;;11.00;55.20;;;;;;4955347;28;20038;-88
2022/04/10 15:53:07;;;;;;;4.60;1.98;;;11.40;55.20;;;;;;4991407;28;20038;-88
2022/04/10 15:55:33;;;;;;;4.78;2.17;;;11.30;56.40;;;;;;4991423;28;20034;-88
2022/04/10 15:57:59;;;;;;;6.32;4.13;;;11.20;57.50;;;;;;4994762;28;20087;-89
2022/04/10 16:00:25;;;;;;;5.45;1.60;;;11.10;57.10;;;;;;4995591;28;20121;-89
2022/04/10 16:06:26;;;;;;;3.60;2.03;;;12.00;55.20;;;;;;5003693;28;20033;-89
2022/04/10 16:08:53;;;;;;;7.90;2.50;;;12.20;52.00;;;;;;4999324;28;20026;-88
2022/04/10 16:17:44;;;;;;;4.25;1.63;;;12.70;53.00;;;;;;5034368;28;20509;-86
2022/04/10 16:24:27;;;;;;;8.07;1.95;;;13.60;50.00;;;;;;4955479;29;20084;-87
2022/04/10 16:36:05;;;;;;;1.95;1.60;;;13.50;48.40;;;;;;4981354;28;20442;-85
2022/04/10 16:47:21;;;;;;;4.93;1.73;;;12.80;49.70;;;;;;5213527;22;20052;-87
2022/04/10 16:53:28;;;;;;;5.88;2.35;;;13.20;47.70;;;;;;5042154;22;20053;-88
2022/04/10 17:06:50;;;;;;;5.32;1.50;;;11.50;54.00;;;;;;4823441;29;20026;-89
2022/04/10 17:10:02;;;;;;;2.30;1.90;;;11.60;53.70;;;;;;4861797;29;20445;-89
2022/04/10 17:13:19;;;;;;;3.95;1.88;;;12.20;53.30;;;;;;4942010;28;20042;-88
2022/04/10 17:22:21;;;;;;;2.75;1.65;;;12.70;50.50;;;;;;4973702;28;20562;-89
2022/04/10 17:25:17;;;;;;;3.90;1.77;;;12.80;52.00;;;;;;4975007;28;20043;-89
2022/04/10 17:27:43;;;;;;;2.97;1.52;;;12.80;51.30;;;;;;4996843;28;20022;-87
2022/04/10 17:30:09;;;;;;;7.03;1.70;;;13.00;52.20;;;;;;5009353;28;20029;-89
2022/04/10 17:32:36;;;;;;;3.95;1.50;;;12.80;51.40;;;;;;5007494;28;20045;-86
2022/04/10 17:35:03;;;;;;;4.65;1.70;;;12.60;52.40;;;;;;5015638;28;20393;-86
2022/04/10 17:37:28;;;;;;;4.47;1.35;;;12.20;52.10;;;;;;4996709;28;20026;-88
2022/04/10 17:48:56;;;;;;;4.93;1.95;;;11.30;56.90;;;;;;5858481;22;20394;-89
2022/04/10 18:05:16;;;;;;;5.32;1.30;;;10.50;61.30;;;;;;4956135;28;20030;-89
2022/04/10 18:07:42;;;;;;;4.57;1.30;;;10.10;63.40;;;;;;4938589;29;20074;-89
2022/04/10 18:10:24;;;;;;;6.55;1.42;;;9.80;64.10;;;;;;4938924;29;20023;-89
2022/04/10 18:25:23;;;;;;;4.05;1.60;;;8.70;68.40;;;;;;4978999;23;20046;-87
2022/04/10 18:45:52;;;;;;;7.78;2.50;;;7.80;73.80;;;;;;5060058;22;20087;-87
2022/04/10 18:55:31;;;;;;;3.70;1.80;;;6.90;78.80;;;;;;4949251;29;20081;-86
2022/04/10 18:58:54;;;;;;;5.20;2.83;;;6.80;81.00;;;;;;4953819;28;20384;-86
2022/04/10 19:08:05;;;;;;;6.68;2.47;;;6.50;82.80;;;;;;4914761;29;20632;-88
2022/04/10 19:16:33;;;;;;;8.88;3.42;;;6.10;85.00;;;;;;5974273;23;19916;-86
2022/04/10 20:01:25;;;;;;;3.05;2.00;;;5.10;99.90;;;;;;4937440;29;20131;-88
2022/04/10 20:03:54;;;;;;;6.43;1.90;;;4.90;99.90;;;;;;4916253;29;20043;-88